sensor_id;sensor_type;location;lat;lon;timestamp;pressure;altitude;pressure_sealevel;temperature;humidity
36630;BME280;36256;42.154;23.002;2024-01-16T00:02:07;95860.19;;;6.95;100.00
36630;BME280;36256;42.154;23.002;2024-01-16T00:04:37;95865.63;;;6.98;100.00
36630;BME280;36256;42.154;23.002;2024-01-16T00:07:04;95866.72;;;6.92;100.00
36630;BME280;36256;42.154;23.002;2024-01-16T00:09:37;95858.34;;;6.92;100.00
36630;BME280;36256;42.154;23.002;2024-01-16T00:12:03;95868.13;;;6.96;100.00
36630;BME280;36256;42.154;23.002;2024-01-16T00:14:30;95865.16;;;6.91;100.00
36630;BME280;36256;42.154;23.002;2024-01-16T00:17:00;95893.03;;;6.91;100.00
36630;BME280;36256;42.154;23.002;2024-01-16T00:19:27;95885.00;;;6.84;100.00
36630;BME280;36256;42.154;23.002;2024-01-16T00:21:54;95885.91;;;6.81;100.00
36630;BME280;36256;42.154;23.002;2024-01-16T00:24:21;95871.81;;;6.84;100.00
36630;BME280;36256;42.154;23.002;2024-01-16T00:26:47;95878.50;;;6.78;100.00
36630;BME280;36256;42.154;23.002;2024-01-16T00:29:16;95869.78;;;6.76;100.00
36630;BME280;36256;42.154;23.002;2024-01-16T00:31:43;95878.16;;;6.67;100.00
36630;BME280;36256;42.154;23.002;2024-01-16T00:34:10;95893.31;;;6.66;100.00
36630;BME280;36256;42.154;23.002;2024-01-16T00:36:37;95899.53;;;6.61;100.00
36630;BME280;36256;42.154;23.002;2024-01-16T00:39:03;95875.38;;;6.67;100.00
36630;BME280;36256;42.154;23.002;2024-01-16T00:41:30;95868.28;;;6.84;100.00
36630;BME280;36256;42.154;23.002;2024-01-16T00:43:57;95866.72;;;6.92;100.00
36630;BME280;36256;42.154;23.002;2024-01-16T00:46:24;95880.34;;;6.90;100.00
36630;BME280;36256;42.154;23.002;2024-01-16T00:48:50;95889.94;;;6.89;100.00
36630;BME280;36256;42.154;23.002;2024-01-16T00:51:17;95885.63;;;6.88;100.00
36630;BME280;36256;42.154;23.002;2024-01-16T00:53:44;95888.84;;;6.95;100.00
36630;BME280;36256;42.154;23.002;2024-01-16T00:56:11;95877.38;;;6.84;100.00
36630;BME280;36256;42.154;23.002;2024-01-16T00:58:39;95873.53;;;6.73;100.00
36630;BME280;36256;42.154;23.002;2024-01-16T01:01:07;95874.75;;;6.72;100.00
36630;BME280;36256;42.154;23.002;2024-01-16T01:03:34;95878.16;;;6.76;100.00
36630;BME280;36256;42.154;23.002;2024-01-16T01:06:01;95875.34;;;6.76;100.00
36630;BME280;36256;42.154;23.002;2024-01-16T01:08:28;95879.09;;;6.82;100.00
36630;BME280;36256;42.154;23.002;2024-01-16T01:10:54;95886.06;;;6.86;100.00
36630;BME280;36256;42.154;23.002;2024-01-16T01:13:22;95870.75;;;6.82;100.00
36630;BME280;36256;42.154;23.002;2024-01-16T01:15:52;95879.72;;;6.86;100.00
36630;BME280;36256;42.154;23.002;2024-01-16T01:18:23;95880.34;;;6.90;100.00
36630;BME280;36256;42.154;23.002;2024-01-16T01:20:50;95893.03;;;6.91;100.00
36630;BME280;36256;42.154;23.002;2024-01-16T01:23:17;95885.31;;;6.86;100.00
36630;BME280;36256;42.154;23.002;2024-01-16T01:25:43;95883.44;;;6.92;100.00
36630;BME280;36256;42.154;23.002;2024-01-16T01:28:10;95889.94;;;6.98;100.00
36630;BME280;36256;42.154;23.002;2024-01-16T01:30:38;95892.56;;;7.01;100.00
36630;BME280;36256;42.154;23.002;2024-01-16T01:33:05;95891.50;;;7.08;100.00
36630;BME280;36256;42.154;23.002;2024-01-16T01:35:32;95891.81;;;7.19;100.00
36630;BME280;36256;42.154;23.002;2024-01-16T01:37:59;95885.78;;;7.11;100.00
36630;BME280;36256;42.154;23.002;2024-01-16T01:40:26;95879.88;;;7.19;100.00
36630;BME280;36256;42.154;23.002;2024-01-16T01:42:56;95874.44;;;6.97;100.00
36630;BME280;36256;42.154;23.002;2024-01-16T01:45:22;95868.25;;;6.93;100.00
36630;BME280;36256;42.154;23.002;2024-01-16T01:47:50;95872.59;;;6.85;100.00
36630;BME280;36256;42.154;23.002;2024-01-16T01:50:17;95872.91;;;6.78;100.00
36630;BME280;36256;42.154;23.002;2024-01-16T01:52:44;95872.91;;;6.78;100.00
36630;BME280;36256;42.154;23.002;2024-01-16T01:55:12;95857.44;;;6.86;100.00
36630;BME280;36256;42.154;23.002;2024-01-16T01:57:40;95854.91;;;6.70;100.00
36630;BME280;36256;42.154;23.002;2024-01-16T02:00:10;95855.88;;;6.67;100.00
36630;BME280;36256;42.154;23.002;2024-01-16T02:02:37;95871.81;;;6.66;100.00
36630;BME280;36256;42.154;23.002;2024-01-16T02:05:09;95867.31;;;6.60;100.00
36630;BME280;36256;42.154;23.002;2024-01-16T02:07:36;95867.59;;;6.53;100.00
36630;BME280;36256;42.154;23.002;2024-01-16T02:10:03;95865.16;;;6.73;100.00
36630;BME280;36256;42.154;23.002;2024-01-16T02:12:30;95863.91;;;6.83;100.00
36630;BME280;36256;42.154;23.002;2024-01-16T02:14:57;95861.13;;;6.92;100.00
36630;BME280;36256;42.154;23.002;2024-01-16T02:17:23;95861.44;;;6.94;100.00
36630;BME280;36256;42.154;23.002;2024-01-16T02:19:50;95856.78;;;6.91;100.00
36630;BME280;36256;42.154;23.002;2024-01-16T02:22:20;95864.22;;;6.85;100.00
36630;BME280;36256;42.154;23.002;2024-01-16T02:24:48;95866.69;;;6.74;100.00
36630;BME280;36256;42.154;23.002;2024-01-16T02:27:24;95866.38;;;6.63;100.00
36630;BME280;36256;42.154;23.002;2024-01-16T02:29:52;95866.97;;;6.49;100.00
36630;BME280;36256;42.154;23.002;2024-01-16T02:32:18;95868.16;;;6.29;100.00
36630;BME280;36256;42.154;23.002;2024-01-16T02:34:45;95868.94;;;6.30;100.00
36630;BME280;36256;42.154;23.002;2024-01-16T02:37:12;95875.59;;;6.32;100.00
36630;BME280;36256;42.154;23.002;2024-01-16T02:39:39;95883.53;;;6.43;100.00
36630;BME280;36256;42.154;23.002;2024-01-16T02:42:09;95891.59;;;6.50;100.00
36630;BME280;36256;42.154;23.002;2024-01-16T02:44:41;95903.50;;;6.51;100.00
36630;BME280;36256;42.154;23.002;2024-01-16T02:47:08;95897.94;;;6.51;100.00
36630;BME280;36256;42.154;23.002;2024-01-16T02:49:35;95903.63;;;6.38;100.00
36630;BME280;36256;42.154;23.002;2024-01-16T02:52:03;95891.25;;;6.39;100.00
36630;BME280;36256;42.154;23.002;2024-01-16T02:54:36;95909.97;;;6.39;100.00
36630;BME280;36256;42.154;23.002;2024-01-16T02:57:03;95908.44;;;6.47;100.00
36630;BME280;36256;42.154;23.002;2024-01-16T02:59:30;95912.47;;;6.46;100.00
36630;BME280;36256;42.154;23.002;2024-01-16T03:01:57;95913.44;;;6.52;100.00
36630;BME280;36256;42.154;23.002;2024-01-16T03:04:27;95907.81;;;6.43;100.00
36630;BME280;36256;42.154;23.002;2024-01-16T03:06:56;95917.44;;;6.42;100.00
36630;BME280;36256;42.154;23.002;2024-01-16T03:09:23;95925.31;;;6.43;100.00
36630;BME280;36256;42.154;23.002;2024-01-16T03:11:49;95926.72;;;6.48;100.00
36630;BME280;36256;42.154;23.002;2024-01-16T03:14:16;95917.28;;;6.45;100.00
36630;BME280;36256;42.154;23.002;2024-01-16T03:16:43;95926.72;;;6.48;100.00
36630;BME280;36256;42.154;23.002;2024-01-16T03:19:10;95949.94;;;6.45;100.00
36630;BME280;36256;42.154;23.002;2024-01-16T03:21:38;95950.22;;;6.38;100.00
36630;BME280;36256;42.154;23.002;2024-01-16T03:24:08;95956.44;;;6.42;100.00
36630;BME280;36256;42.154;23.002;2024-01-16T03:26:37;95959.19;;;6.32;100.00
36630;BME280;36256;42.154;23.002;2024-01-16T03:29:04;95954.50;;;6.20;100.00
36630;BME280;36256;42.154;23.002;2024-01-16T03:31:31;95964.94;;;6.07;100.00
36630;BME280;36256;42.154;23.002;2024-01-16T03:33:58;95958.00;;;6.12;100.00
36630;BME280;36256;42.154;23.002;2024-01-16T03:36:25;95968.41;;;6.20;100.00
36630;BME280;36256;42.154;23.002;2024-01-16T03:38:51;95962.38;;;6.22;100.00
36630;BME280;36256;42.154;23.002;2024-01-16T03:41:18;95963.75;;;6.17;100.00
36630;BME280;36256;42.154;23.002;2024-01-16T03:43:45;95949.44;;;5.97;100.00
36630;BME280;36256;42.154;23.002;2024-01-16T03:46:11;95978.41;;;6.09;100.00
36630;BME280;36256;42.154;23.002;2024-01-16T03:48:38;95972.06;;;6.08;100.00
36630;BME280;36256;42.154;23.002;2024-01-16T03:51:08;95965.34;;;5.97;100.00
36630;BME280;36256;42.154;23.002;2024-01-16T03:53:35;95967.41;;;6.05;100.00
36630;BME280;36256;42.154;23.002;2024-01-16T03:56:02;95970.13;;;5.96;100.00
36630;BME280;36256;42.154;23.002;2024-01-16T03:58:29;95973.88;;;6.02;100.00
36630;BME280;36256;42.154;23.002;2024-01-16T04:00:55;95976.97;;;6.04;100.00
36630;BME280;36256;42.154;23.002;2024-01-16T04:03:22;95983.19;;;6.08;100.00
36630;BME280;36256;42.154;23.002;2024-01-16T04:05:50;95992.00;;;6.07;100.00
36630;BME280;36256;42.154;23.002;2024-01-16T04:08:17;95983.97;;;6.09;100.00
36630;BME280;36256;42.154;23.002;2024-01-16T04:10:43;95991.22;;;6.06;100.00
36630;BME280;36256;42.154;23.002;2024-01-16T04:13:10;96009.81;;;6.09;100.00
36630;BME280;36256;42.154;23.002;2024-01-16T04:15:38;96019.38;;;6.08;100.00
36630;BME280;36256;42.154;23.002;2024-01-16T04:18:06;96022.47;;;6.01;100.00
36630;BME280;36256;42.154;23.002;2024-01-16T04:20:33;96039.81;;;6.05;100.00
36630;BME280;36256;42.154;23.002;2024-01-16T04:23:00;96032.63;;;5.95;100.00
36630;BME280;36256;42.154;23.002;2024-01-16T04:25:26;96045.91;;;5.91;100.00
36630;BME280;36256;42.154;23.002;2024-01-16T04:27:53;96055.47;;;5.90;100.00
36630;BME280;36256;42.154;23.002;2024-01-16T04:30:20;96048.03;;;5.87;100.00
36630;BME280;36256;42.154;23.002;2024-01-16T04:32:46;96051.72;;;5.84;100.00
36630;BME280;36256;42.154;23.002;2024-01-16T04:35:13;96055.16;;;5.88;100.00
36630;BME280;36256;42.154;23.002;2024-01-16T04:37:41;96068.44;;;5.84;100.00
36630;BME280;36256;42.154;23.002;2024-01-16T04:40:08;96083.53;;;5.83;100.00
36630;BME280;36256;42.154;23.002;2024-01-16T04:42:35;96082.88;;;5.79;100.00
36630;BME280;36256;42.154;23.002;2024-01-16T04:45:01;96081.59;;;5.71;100.00
36630;BME280;36256;42.154;23.002;2024-01-16T04:47:28;96097.44;;;5.83;100.00
36630;BME280;36256;42.154;23.002;2024-01-16T04:49:55;96097.91;;;5.82;100.00
36630;BME280;36256;42.154;23.002;2024-01-16T04:52:22;96097.38;;;5.87;100.00
36630;BME280;36256;42.154;23.002;2024-01-16T04:54:48;96081.75;;;5.89;100.00
36630;BME280;36256;42.154;23.002;2024-01-16T04:57:15;96082.53;;;5.90;100.00
36630;BME280;36256;42.154;23.002;2024-01-16T04:59:42;96098.44;;;5.89;100.00
36630;BME280;36256;42.154;23.002;2024-01-16T05:02:08;96098.13;;;5.87;100.00
36630;BME280;36256;42.154;23.002;2024-01-16T05:04:37;96105.72;;;5.87;100.00
36630;BME280;36256;42.154;23.002;2024-01-16T05:07:04;96096.91;;;5.88;100.00
36630;BME280;36256;42.154;23.002;2024-01-16T05:09:31;96107.16;;;5.91;100.00
36630;BME280;36256;42.154;23.002;2024-01-16T05:11:58;96115.16;;;5.89;100.00
36630;BME280;36256;42.154;23.002;2024-01-16T05:14:25;96133.09;;;5.88;100.00
36630;BME280;36256;42.154;23.002;2024-01-16T05:16:52;96130.31;;;5.88;100.00
36630;BME280;36256;42.154;23.002;2024-01-16T05:19:19;96150.00;;;5.94;100.00
36630;BME280;36256;42.154;23.002;2024-01-16T05:21:46;96155.25;;;5.92;100.00
36630;BME280;36256;42.154;23.002;2024-01-16T05:24:13;96162.84;;;5.91;100.00
36630;BME280;36256;42.154;23.002;2024-01-16T05:26:39;96164.50;;;5.89;100.00
36630;BME280;36256;42.154;23.002;2024-01-16T05:29:06;96168.50;;;5.88;100.00
36630;BME280;36256;42.154;23.002;2024-01-16T05:31:39;96179.78;;;5.84;100.00
36630;BME280;36256;42.154;23.002;2024-01-16T05:34:06;96177.31;;;5.86;100.00
36630;BME280;36256;42.154;23.002;2024-01-16T05:36:33;96194.66;;;5.90;100.00
36630;BME280;36256;42.154;23.002;2024-01-16T05:39:00;96201.53;;;5.98;100.00
36630;BME280;36256;42.154;23.002;2024-01-16T05:41:26;96202.69;;;5.88;100.00
36630;BME280;36256;42.154;23.002;2024-01-16T05:43:53;96212.81;;;5.95;100.00
36630;BME280;36256;42.154;23.002;2024-01-16T05:46:20;96207.00;;;6.02;100.00
36630;BME280;36256;42.154;23.002;2024-01-16T05:48:46;96205.97;;;6.08;100.00
36630;BME280;36256;42.154;23.002;2024-01-16T05:51:13;96215.56;;;6.07;100.00
36630;BME280;36256;42.154;23.002;2024-01-16T05:53:40;96218.66;;;6.09;100.00
36630;BME280;36256;42.154;23.002;2024-01-16T05:56:07;96221.13;;;6.07;100.00
36630;BME280;36256;42.154;23.002;2024-01-16T05:58:34;96237.06;;;6.07;100.00
36630;BME280;36256;42.154;23.002;2024-01-16T06:01:05;96243.41;;;6.07;100.00
36630;BME280;36256;42.154;23.002;2024-01-16T06:03:32;96251.19;;;6.12;100.00
36630;BME280;36256;42.154;23.002;2024-01-16T06:05:59;96259.09;;;6.14;100.00
36630;BME280;36256;42.154;23.002;2024-01-16T06:08:26;96273.53;;;6.21;100.00
36630;BME280;36256;42.154;23.002;2024-01-16T06:10:52;96293.69;;;6.25;100.00
36630;BME280;36256;42.154;23.002;2024-01-16T06:13:19;96303.41;;;6.21;100.00
36630;BME280;36256;42.154;23.002;2024-01-16T06:15:46;96306.31;;;6.17;100.00
36630;BME280;36256;42.154;23.002;2024-01-16T06:18:12;96323.59;;;6.12;100.00
36630;BME280;36256;42.154;23.002;2024-01-16T06:20:42;96344.53;;;6.04;100.00
36630;BME280;36256;42.154;23.002;2024-01-16T06:23:09;96354.13;;;6.03;100.00
36630;BME280;36256;42.154;23.002;2024-01-16T06:25:36;96351.81;;;6.02;100.00
36630;BME280;36256;42.154;23.002;2024-01-16T06:28:03;96367.16;;;6.06;100.00
36630;BME280;36256;42.154;23.002;2024-01-16T06:30:31;96373.75;;;6.12;100.00
36630;BME280;36256;42.154;23.002;2024-01-16T06:32:58;96368.84;;;6.16;100.00
36630;BME280;36256;42.154;23.002;2024-01-16T06:35:25;96377.75;;;6.11;100.00
36630;BME280;36256;42.154;23.002;2024-01-16T06:37:52;96392.88;;;6.10;100.00
36630;BME280;36256;42.154;23.002;2024-01-16T06:40:19;96404.38;;;6.12;100.00
36630;BME280;36256;42.154;23.002;2024-01-16T06:42:46;96417.06;;;6.26;100.00
36630;BME280;36256;42.154;23.002;2024-01-16T06:45:12;96419.72;;;6.17;100.00
36630;BME280;36256;42.154;23.002;2024-01-16T06:47:39;96425.41;;;6.13;100.00
36630;BME280;36256;42.154;23.002;2024-01-16T06:50:08;96427.19;;;6.07;100.00
36630;BME280;36256;42.154;23.002;2024-01-16T06:52:36;96425.41;;;6.13;100.00
36630;BME280;36256;42.154;23.002;2024-01-16T06:55:02;96456.50;;;6.12;100.00
36630;BME280;36256;42.154;23.002;2024-01-16T06:57:31;96458.28;;;6.06;100.00
36630;BME280;36256;42.154;23.002;2024-01-16T06:59:57;96472.88;;;5.97;100.00
36630;BME280;36256;42.154;23.002;2024-01-16T07:02:24;96464.94;;;5.96;100.00
36630;BME280;36256;42.154;23.002;2024-01-16T07:04:52;96478.38;;;5.72;100.00
36630;BME280;36256;42.154;23.002;2024-01-16T07:07:19;96498.91;;;5.62;100.00
36630;BME280;36256;42.154;23.002;2024-01-16T07:09:46;96513.63;;;5.63;100.00
36630;BME280;36256;42.154;23.002;2024-01-16T07:12:13;96526.16;;;5.54;100.00
36630;BME280;36256;42.154;23.002;2024-01-16T07:14:39;96532.84;;;5.57;100.00
36630;BME280;36256;42.154;23.002;2024-01-16T07:17:06;96550.97;;;5.49;100.00
36630;BME280;36256;42.154;23.002;2024-01-16T07:19:34;96548.03;;;5.40;100.00
36630;BME280;36256;42.154;23.002;2024-01-16T07:22:01;96561.84;;;5.43;100.00
36630;BME280;36256;42.154;23.002;2024-01-16T07:24:27;96573.41;;;5.26;100.00
36630;BME280;36256;42.154;23.002;2024-01-16T07:26:54;96558.59;;;5.16;100.00
36630;BME280;36256;42.154;23.002;2024-01-16T07:29:21;96574.25;;;5.10;100.00
36630;BME280;36256;42.154;23.002;2024-01-16T07:31:48;96581.34;;;4.95;100.00
36630;BME280;36256;42.154;23.002;2024-01-16T07:34:14;96569.19;;;4.89;100.00
36630;BME280;36256;42.154;23.002;2024-01-16T07:36:46;96565.28;;;4.87;100.00
36630;BME280;36256;42.154;23.002;2024-01-16T07:39:13;96576.91;;;4.82;100.00
36630;BME280;36256;42.154;23.002;2024-01-16T07:41:40;96589.88;;;4.88;100.00
36630;BME280;36256;42.154;23.002;2024-01-16T07:44:07;96594.31;;;4.86;100.00
36630;BME280;36256;42.154;23.002;2024-01-16T07:46:34;96619.69;;;4.88;100.00
36630;BME280;36256;42.154;23.002;2024-01-16T07:49:01;96611.84;;;4.83;100.00
36630;BME280;36256;42.154;23.002;2024-01-16T07:51:28;96620.19;;;4.83;100.00
36630;BME280;36256;42.154;23.002;2024-01-16T07:54:05;96637.22;;;4.85;100.00
36630;BME280;36256;42.154;23.002;2024-01-16T07:56:34;96641.97;;;4.84;100.00
36630;BME280;36256;42.154;23.002;2024-01-16T07:59:01;96658.50;;;4.91;100.00
36630;BME280;36256;42.154;23.002;2024-01-16T08:01:30;96660.00;;;4.96;100.00
36630;BME280;36256;42.154;23.002;2024-01-16T08:03:57;96665.91;;;4.98;100.00
36630;BME280;36256;42.154;23.002;2024-01-16T08:06:24;96664.91;;;4.88;100.00
36630;BME280;36256;42.154;23.002;2024-01-16T08:08:51;96677.03;;;4.98;100.00
36630;BME280;36256;42.154;23.002;2024-01-16T08:11:18;96684.66;;;4.94;100.00
36630;BME280;36256;42.154;23.002;2024-01-16T08:13:45;96673.25;;;4.88;100.00
36630;BME280;36256;42.154;23.002;2024-01-16T08:16:12;96678.41;;;4.90;99.10
36630;BME280;36256;42.154;23.002;2024-01-16T08:18:39;96696.38;;;5.01;98.41
36630;BME280;36256;42.154;23.002;2024-01-16T08:21:05;96707.50;;;5.01;98.08
36630;BME280;36256;42.154;23.002;2024-01-16T08:23:32;96709.00;;;5.06;98.01
36630;BME280;36256;42.154;23.002;2024-01-16T08:25:59;96715.41;;;5.03;97.46
36630;BME280;36256;42.154;23.002;2024-01-16T08:28:26;96713.41;;;5.03;93.39
36630;BME280;36256;42.154;23.002;2024-01-16T08:30:52;96714.72;;;4.99;94.12
36630;BME280;36256;42.154;23.002;2024-01-16T08:33:19;96717.13;;;4.97;94.72
36630;BME280;36256;42.154;23.002;2024-01-16T08:35:59;96734.81;;;5.06;94.87
36630;BME280;36256;42.154;23.002;2024-01-16T08:38:26;96747.78;;;5.13;94.85
36630;BME280;36256;42.154;23.002;2024-01-16T08:40:52;96756.28;;;5.22;93.67
36630;BME280;36256;42.154;23.002;2024-01-16T08:43:19;96757.78;;;5.26;93.26
36630;BME280;36256;42.154;23.002;2024-01-16T08:45:46;96762.72;;;5.19;92.94
36630;BME280;36256;42.154;23.002;2024-01-16T08:48:14;96767.06;;;5.20;93.93
36630;BME280;36256;42.154;23.002;2024-01-16T08:50:41;96782.03;;;5.26;94.10
36630;BME280;36256;42.154;23.002;2024-01-16T08:53:08;96779.06;;;5.17;92.85
36630;BME280;36256;42.154;23.002;2024-01-16T08:55:35;96777.84;;;5.18;90.34
36630;BME280;36256;42.154;23.002;2024-01-16T08:58:02;96781.66;;;5.24;89.20
36630;BME280;36256;42.154;23.002;2024-01-16T09:00:29;96778.13;;;5.23;90.35
36630;BME280;36256;42.154;23.002;2024-01-16T09:02:55;96769.00;;;5.23;88.14
36630;BME280;36256;42.154;23.002;2024-01-16T09:05:22;96774.00;;;5.12;87.97
36630;BME280;36256;42.154;23.002;2024-01-16T09:07:52;96781.28;;;5.06;85.00
36630;BME280;36256;42.154;23.002;2024-01-16T09:10:19;96789.28;;;5.04;85.12
36630;BME280;36256;42.154;23.002;2024-01-16T09:12:47;96801.47;;;5.10;85.76
36630;BME280;36256;42.154;23.002;2024-01-16T09:15:14;96732.16;;;4.63;85.37
36630;BME280;36256;42.154;23.002;2024-01-16T09:17:42;96808.88;;;5.16;84.19
36630;BME280;36256;42.154;23.002;2024-01-16T09:20:09;96802.97;;;5.14;83.44
36630;BME280;36256;42.154;23.002;2024-01-16T09:22:35;96798.00;;;5.22;82.13
36630;BME280;36256;42.154;23.002;2024-01-16T09:25:02;96798.34;;;5.24;81.85
36630;BME280;36256;42.154;23.002;2024-01-16T09:27:29;96803.34;;;5.32;83.23
36630;BME280;36256;42.154;23.002;2024-01-16T09:29:56;96797.44;;;5.30;80.73
36630;BME280;36256;42.154;23.002;2024-01-16T09:32:22;96805.19;;;5.39;82.95
36630;BME280;36256;42.154;23.002;2024-01-16T09:34:50;96803.38;;;5.48;81.81
36630;BME280;36256;42.154;23.002;2024-01-16T09:37:16;96810.69;;;5.42;82.14
36630;BME280;36256;42.154;23.002;2024-01-16T09:39:43;96806.44;;;5.54;81.63
36630;BME280;36256;42.154;23.002;2024-01-16T09:42:10;96804.19;;;5.65;81.04
36630;BME280;36256;42.154;23.002;2024-01-16T09:44:38;96808.53;;;5.82;80.51
36630;BME280;36256;42.154;23.002;2024-01-16T09:47:06;96817.47;;;5.93;79.46
36630;BME280;36256;42.154;23.002;2024-01-16T09:49:37;96817.47;;;5.93;78.58
36630;BME280;36256;42.154;23.002;2024-01-16T09:52:05;96805.44;;;5.96;77.21
36630;BME280;36256;42.154;23.002;2024-01-16T09:54:32;96803.88;;;5.95;74.36
36630;BME280;36256;42.154;23.002;2024-01-16T09:57:01;96805.44;;;5.96;75.30
36630;BME280;36256;42.154;23.002;2024-01-16T09:59:31;96803.34;;;5.84;74.28
36630;BME280;36256;42.154;23.002;2024-01-16T10:01:59;96817.88;;;5.92;75.05
36630;BME280;36256;42.154;23.002;2024-01-16T10:04:27;96812.84;;;5.87;74.12
36630;BME280;36256;42.154;23.002;2024-01-16T10:06:56;96808.19;;;5.80;73.06
36630;BME280;36256;42.154;23.002;2024-01-16T10:09:24;96808.03;;;5.87;72.03
36630;BME280;36256;42.154;23.002;2024-01-16T10:11:52;96807.53;;;5.92;72.02
36630;BME280;36256;42.154;23.002;2024-01-16T10:14:19;96810.91;;;6.00;73.36
36630;BME280;36256;42.154;23.002;2024-01-16T10:17:02;96809.00;;;6.13;72.51
36630;BME280;36256;42.154;23.002;2024-01-16T10:19:32;96799.16;;;6.24;71.19
36630;BME280;36256;42.154;23.002;2024-01-16T10:22:20;96792.69;;;6.27;69.86
36630;BME280;36256;42.154;23.002;2024-01-16T10:27:30;96803.13;;;6.40;68.82
36630;BME280;36256;42.154;23.002;2024-01-16T10:29:58;96805.03;;;6.43;68.46
36630;BME280;36256;42.154;23.002;2024-01-16T10:32:29;96789.97;;;6.40;66.23
36630;BME280;36256;42.154;23.002;2024-01-16T10:40:16;96795.19;;;6.54;67.34
36630;BME280;36256;42.154;23.002;2024-01-16T10:43:04;96804.75;;;6.53;65.32
36630;BME280;36256;42.154;23.002;2024-01-16T10:45:32;96805.63;;;6.50;65.54
36630;BME280;36256;42.154;23.002;2024-01-16T10:48:03;96810.13;;;6.60;65.10
36630;BME280;36256;42.154;23.002;2024-01-16T10:50:36;96818.22;;;6.71;64.99
36630;BME280;36256;42.154;23.002;2024-01-16T10:53:07;96816.97;;;6.72;66.48
36630;BME280;36256;42.154;23.002;2024-01-16T10:55:50;96812.06;;;6.76;65.71
36630;BME280;36256;42.154;23.002;2024-01-16T10:58:24;96816.09;;;6.75;65.21
36630;BME280;36256;42.154;23.002;2024-01-16T11:00:53;96812.78;;;6.80;64.76
36630;BME280;36256;42.154;23.002;2024-01-16T11:03:50;96810.88;;;6.77;62.85
36630;BME280;36256;42.154;23.002;2024-01-16T11:06:17;96808.09;;;6.77;61.66
36630;BME280;36256;42.154;23.002;2024-01-16T11:08:46;96810.13;;;6.89;63.09
36630;BME280;36256;42.154;23.002;2024-01-16T11:11:14;96809.25;;;6.92;62.66
36630;BME280;36256;42.154;23.002;2024-01-16T11:13:42;96801.91;;;6.98;60.94
36630;BME280;36256;42.154;23.002;2024-01-16T11:16:13;96798.78;;;6.96;61.03
36630;BME280;36256;42.154;23.002;2024-01-16T11:18:39;96791.63;;;6.95;61.59
36630;BME280;36256;42.154;23.002;2024-01-16T11:21:07;96795.44;;;7.01;63.81
36630;BME280;36256;42.154;23.002;2024-01-16T11:23:40;96790.53;;;7.05;60.89
36630;BME280;36256;42.154;23.002;2024-01-16T11:26:30;96802.38;;;7.09;61.23
36630;BME280;36256;42.154;23.002;2024-01-16T11:31:55;96812.88;;;7.05;61.09
36630;BME280;36256;42.154;23.002;2024-01-16T11:37:11;96812.88;;;7.05;62.69
36630;BME280;36256;42.154;23.002;2024-01-16T11:39:38;96813.25;;;6.91;60.46
36630;BME280;36256;42.154;23.002;2024-01-16T11:42:06;96817.03;;;6.84;60.60
36630;BME280;36256;42.154;23.002;2024-01-16T11:44:40;96824.06;;;6.89;60.02
36630;BME280;36256;42.154;23.002;2024-01-16T11:47:07;96820.25;;;6.83;59.07
36630;BME280;36256;42.154;23.002;2024-01-16T11:49:39;96820.94;;;6.87;59.48
36630;BME280;36256;42.154;23.002;2024-01-16T11:52:06;96823.72;;;6.87;59.07
36630;BME280;36256;42.154;23.002;2024-01-16T11:54:34;96820.03;;;6.77;58.50
36630;BME280;36256;42.154;23.002;2024-01-16T12:02:37;96798.00;;;6.67;58.53
36630;BME280;36256;42.154;23.002;2024-01-16T12:05:05;96824.81;;;6.77;60.46
36630;BME280;36256;42.154;23.002;2024-01-16T12:07:45;96834.19;;;6.83;61.08
36630;BME280;36256;42.154;23.002;2024-01-16T12:10:12;96842.91;;;6.85;61.37
36630;BME280;36256;42.154;23.002;2024-01-16T12:12:39;96838.69;;;6.93;59.90
36630;BME280;36256;42.154;23.002;2024-01-16T12:15:06;96834.69;;;6.94;59.01
36630;BME280;36256;42.154;23.002;2024-01-16T12:17:33;96835.38;;;6.98;59.85
36630;BME280;36256;42.154;23.002;2024-01-16T12:20:16;96843.97;;;7.03;60.33
36630;BME280;36256;42.154;23.002;2024-01-16T12:22:43;96835.06;;;7.08;59.94
36630;BME280;36256;42.154;23.002;2024-01-16T12:25:10;96835.84;;;7.09;59.75
36630;BME280;36256;42.154;23.002;2024-01-16T12:27:38;96825.25;;;7.17;58.80
36630;BME280;36256;42.154;23.002;2024-01-16T12:30:06;96832.31;;;7.21;58.29
36630;BME280;36256;42.154;23.002;2024-01-16T12:32:33;96828.97;;;7.26;58.79
36630;BME280;36256;42.154;23.002;2024-01-16T12:35:00;96820.03;;;7.31;60.12
36630;BME280;36256;42.154;23.002;2024-01-16T12:37:27;96818.84;;;7.32;60.43
36630;BME280;36256;42.154;23.002;2024-01-16T12:39:54;96830.97;;;7.13;61.05
36630;BME280;36256;42.154;23.002;2024-01-16T12:42:24;96834.53;;;7.13;61.86
36630;BME280;36256;42.154;23.002;2024-01-16T12:44:51;96831.53;;;7.21;61.41
36630;BME280;36256;42.154;23.002;2024-01-16T12:47:21;96832.78;;;7.32;60.61
36630;BME280;36256;42.154;23.002;2024-01-16T12:49:48;96829.44;;;7.37;62.38
36630;BME280;36256;42.154;23.002;2024-01-16T12:52:17;96841.06;;;7.48;60.16
36630;BME280;36256;42.154;23.002;2024-01-16T12:54:48;96832.34;;;7.46;60.56
36630;BME280;36256;42.154;23.002;2024-01-16T12:57:19;96839.81;;;7.24;61.30
36630;BME280;36256;42.154;23.002;2024-01-16T12:59:48;96852.72;;;7.18;61.52
36630;BME280;36256;42.154;23.002;2024-01-16T13:02:22;96861.97;;;7.15;60.67
36630;BME280;36256;42.154;23.002;2024-01-16T13:04:59;96856.03;;;7.00;62.04
36630;BME280;36256;42.154;23.002;2024-01-16T13:07:27;96848.41;;;6.88;62.51
36630;BME280;36256;42.154;23.002;2024-01-16T13:10:11;96851.19;;;6.88;61.38
36630;BME280;36256;42.154;23.002;2024-01-16T13:12:39;96856.84;;;6.85;62.81
36630;BME280;36256;42.154;23.002;2024-01-16T13:15:06;96860.19;;;6.80;62.19
36630;BME280;36256;42.154;23.002;2024-01-16T13:17:33;96873.06;;;6.90;62.27